Time;durP1;ratioP1;P1;durP2;ratioP2;P2;SDS_P1;SDS_P2;PMS_P1;PMS_P2;Temp;Humidity;BMP_temperature;BMP_pressure;BME280_temperature;BME280_humidity;BME280_pressure;Samples;Min_cycle;Max_cycle;Signal;HPM_P1;HPM_P2
2021/06/20 14:40:04;;;;;;;;;5.50;4.00;;;;;26.58;42.80;100048.06;5105307;27;45596;-48
2021/06/20 14:42:29;;;;;;;;;3.50;3.50;;;;;26.76;42.39;100042.81;5092259;27;45400;-46
2021/06/20 14:44:55;;;;;;;;;4.00;4.00;;;;;26.87;41.77;100031.19;5092462;27;64808;-47
2021/06/20 14:47:20;;;;;;;;;4.00;4.00;;;;;26.92;41.45;100031.59;5093685;27;45360;-45
2021/06/20 14:49:45;;;;;;;;;4.00;4.00;;;;;27.01;41.07;100031.53;5093256;27;46817;-45
2021/06/20 14:52:11;;;;;;;;;4.50;4.50;;;;;27.09;40.69;100022.00;5093526;27;45242;-47
2021/06/20 14:54:37;;;;;;;;;4.25;3.50;;;;;27.15;40.85;100030.22;5093455;27;45316;-49
2021/06/20 14:57:03;;;;;;;;;5.00;3.75;;;;;27.11;40.67;100031.50;5093901;27;45161;-54
2021/06/20 14:59:28;;;;;;;;;3.25;3.25;;;;;26.81;40.94;100025.50;5093045;27;49091;-57
2021/06/20 15:01:54;;;;;;;;;3.50;3.50;;;;;26.69;41.56;100029.28;5092830;27;73199;-56
2021/06/20 15:04:20;;;;;;;;;5.50;3.25;;;;;26.59;41.78;100013.34;5093350;27;45393;-57
2021/06/20 15:06:48;;;;;;;;;3.00;3.00;;;;;26.51;41.32;100018.56;5093560;27;45521;-56
2021/06/20 15:09:14;;;;;;;;;4.00;4.00;;;;;26.44;41.79;100012.97;5092858;27;45507;-57
2021/06/20 15:11:40;;;;;;;;;4.00;4.00;;;;;26.40;41.88;100016.94;5091574;27;45639;-57
2021/06/20 15:14:05;;;;;;;;;4.00;3.00;;;;;26.33;41.86;100011.34;5093378;27;45265;-55
2021/06/20 15:16:34;;;;;;;;;4.00;4.00;;;;;26.33;41.87;100010.50;5093102;27;49178;-55
2021/06/20 15:18:59;;;;;;;;;4.00;4.00;;;;;26.31;41.30;100013.31;5091937;27;46067;-53
2021/06/20 15:21:24;;;;;;;;;3.25;3.25;;;;;26.29;41.43;99996.66;5092284;27;71229;-53
2021/06/20 15:23:50;;;;;;;;;3.50;3.50;;;;;26.27;41.84;100005.75;5091001;27;57273;-55
2021/06/20 15:26:15;;;;;;;;;2.75;2.75;;;;;26.24;41.49;100010.38;5092787;27;54677;-53
2021/06/20 15:28:52;;;;;;;;;4.00;4.00;;;;;26.23;42.04;100008.69;5092098;27;72290;-52
2021/06/20 15:31:17;;;;;;;;;4.00;4.00;;;;;26.22;41.76;100007.03;5093111;27;45276;-50
2021/06/20 15:33:42;;;;;;;;;3.25;3.25;;;;;26.18;41.85;100008.28;5090930;27;62465;-53
2021/06/20 15:36:08;;;;;;;;;3.00;3.00;;;;;26.17;42.41;100011.94;5092159;27;57255;-53
2021/06/20 15:38:33;;;;;;;;;4.25;3.00;;;;;26.18;42.01;100013.59;5092068;27;52147;-51
2021/06/20 15:40:59;;;;;;;;;4.50;4.50;;;;;26.15;42.00;100013.88;5092833;27;45328;-53
2021/06/20 15:43:24;;;;;;;;;5.00;4.00;;;;;26.15;42.20;100019.19;5093213;27;45270;-53
2021/06/20 15:45:49;;;;;;;;;4.00;4.00;;;;;26.14;41.95;100022.84;5092216;27;65071;-53
2021/06/20 15:48:15;;;;;;;;;5.00;5.00;;;;;26.13;42.31;100020.34;5092605;27;45897;-52
2021/06/20 15:50:41;;;;;;;;;3.75;3.75;;;;;26.12;42.14;100010.69;5082120;27;68295;-50
2021/06/20 15:53:07;;;;;;;;;4.00;4.00;;;;;26.10;42.59;100002.84;5079180;27;45481;-52
2021/06/20 15:55:34;;;;;;;;;4.00;4.00;;;;;26.10;42.64;100000.19;5079473;27;45387;-53
2021/06/20 15:57:59;;;;;;;;;5.00;5.00;;;;;26.10;42.52;99999.38;5078931;27;45462;-53
2021/06/20 16:00:25;;;;;;;;;5.25;4.75;;;;;26.08;42.20;99999.44;5078066;28;45365;-52
2021/06/20 16:02:50;;;;;;;;;4.00;4.00;;;;;26.07;42.27;100001.28;5077937;28;45385;-50
2021/06/20 16:05:17;;;;;;;;;5.75;4.50;;;;;26.07;42.67;99989.84;5079486;27;45359;-50
2021/06/20 16:07:43;;;;;;;;;6.00;5.75;;;;;26.06;42.29;99994.28;5077797;28;45436;-52
2021/06/20 16:10:09;;;;;;;;;6.00;6.00;;;;;26.05;42.62;99991.78;5079162;27;45247;-51
2021/06/20 16:12:35;;;;;;;;;5.00;5.00;;;;;26.03;42.21;99989.25;5079102;27;45369;-50
2021/06/20 16:15:02;;;;;;;;;5.50;5.50;;;;;26.04;42.96;99992.75;5079383;27;45595;-51
2021/06/20 16:17:28;;;;;;;;;7.00;6.25;;;;;26.04;43.05;99987.47;5079353;27;45220;-53
2021/06/20 16:19:53;;;;;;;;;6.50;5.50;;;;;26.03;42.62;99988.44;5079052;27;45727;-53
2021/06/20 16:22:19;;;;;;;;;6.00;6.00;;;;;26.04;42.70;99992.75;5078679;27;54561;-54
2021/06/20 16:24:45;;;;;;;;;6.00;4.50;;;;;26.02;43.06;99992.06;5077754;27;45606;-51
2021/06/20 16:27:10;;;;;;;;;5.25;4.75;;;;;26.02;43.00;99984.94;5077440;27;47272;-52
2021/06/20 16:29:35;;;;;;;;;8.75;6.00;;;;;26.01;43.08;99980.63;5077850;27;67377;-52
2021/06/20 16:32:01;;;;;;;;;6.00;6.00;;;;;26.01;43.56;99972.66;5078933;27;45351;-54
2021/06/20 16:34:26;;;;;;;;;6.00;4.25;;;;;26.01;42.86;99974.47;5079014;27;45480;-50
2021/06/20 16:36:54;;;;;;;;;6.25;5.25;;;;;25.99;43.00;99965.78;5074642;27;45462;-53
2021/06/20 16:39:20;;;;;;;;;5.00;5.00;;;;;26.01;43.26;99963.84;5076944;27;45355;-50
2021/06/20 16:41:45;;;;;;;;;4.50;4.50;;;;;26.01;43.60;99963.84;5077176;28;45248;-50
2021/06/20 16:44:11;;;;;;;;;6.50;4.50;;;;;26.01;44.10;99961.19;5076256;28;45537;-54
2021/06/20 16:46:36;;;;;;;;;5.00;5.00;;;;;26.01;44.19;99963.84;5077299;27;63697;-52
2021/06/20 16:49:02;;;;;;;;;7.00;6.25;;;;;26.03;43.90;99959.22;5076798;28;46237;-49
2021/06/20 16:51:27;;;;;;;;;5.00;5.00;;;;;26.02;43.88;99955.72;5078252;27;45360;-52
2021/06/20 16:53:53;;;;;;;;;6.75;6.75;;;;;26.04;44.48;99952.94;5078307;27;45234;-52
2021/06/20 16:56:18;;;;;;;;;5.50;5.50;;;;;26.06;44.60;99956.28;5076623;28;46645;-51
2021/06/20 16:58:43;;;;;;;;;5.00;5.00;;;;;26.06;44.33;99961.59;5077817;27;45352;-46
2021/06/20 17:01:09;;;;;;;;;4.75;4.75;;;;;26.05;44.63;99959.94;5076909;27;45670;-49
2021/06/20 17:03:35;;;;;;;;;4.75;4.75;;;;;26.06;44.76;99956.28;5057142;28;45380;-48
2021/06/20 17:06:00;;;;;;;;;7.00;6.75;;;;;26.04;44.90;99947.63;5076875;27;68774;-50
2021/06/20 17:08:25;;;;;;;;;8.75;6.00;;;;;26.03;45.03;99949.44;5077699;27;56552;-52
2021/06/20 17:10:51;;;;;;;;;7.00;6.25;;;;;26.04;44.76;99961.72;5077883;27;45329;-50
2021/06/20 17:13:16;;;;;;;;;6.75;5.75;;;;;26.07;45.19;99965.94;5076960;27;60128;-45
2021/06/20 17:15:42;;;;;;;;;6.00;4.25;;;;;26.05;45.49;99955.44;5077615;27;45347;-55
2021/06/20 17:18:07;;;;;;;;;8.75;7.00;;;;;26.05;46.11;99970.56;5075433;28;68739;-52
2021/06/20 17:20:32;;;;;;;;;5.00;5.00;;;;;26.02;46.01;99973.47;5077068;27;56721;-45
2021/06/20 17:22:58;;;;;;;;;6.75;6.00;;;;;26.00;46.28;99978.94;5078141;27;45588;-56
2021/06/20 17:25:23;;;;;;;;;4.25;3.75;;;;;25.99;46.84;99971.09;5076972;27;61476;-50
2021/06/20 17:27:49;;;;;;;;;9.00;7.00;;;;;25.95;47.37;99985.66;5077507;27;45318;-54
2021/06/20 17:30:16;;;;;;;;;5.00;5.00;;;;;25.90;48.09;99978.94;5076491;27;45367;-47
2021/06/20 17:32:41;;;;;;;;;5.50;5.00;;;;;25.88;48.79;99983.56;5077278;27;45292;-49
2021/06/20 17:35:07;;;;;;;;;6.00;5.25;;;;;25.85;48.66;99975.84;5076960;27;45997;-63
2021/06/20 17:37:32;;;;;;;;;5.00;5.00;;;;;25.85;48.79;99975.84;5075854;28;45262;-64
2021/06/20 17:39:58;;;;;;;;;5.25;5.25;;;;;25.86;49.14;99982.03;5077641;27;45399;-56
2021/06/20 17:42:23;;;;;;;;;5.25;5.25;;;;;25.85;49.53;99981.16;5077353;27;45453;-65
2021/06/20 17:44:49;;;;;;;;;7.50;7.50;;;;;25.82;49.37;99980.63;5077080;27;46087;-67
2021/06/20 17:47:14;;;;;;;;;7.00;7.00;;;;;25.77;49.56;99986.34;5076353;27;64573;-60
2021/06/20 17:49:40;;;;;;;;;7.50;7.00;;;;;25.72;50.50;99996.56;5076962;27;45718;-62
2021/06/20 17:52:05;;;;;;;;;5.25;5.25;;;;;25.66;50.69;100005.06;5075981;28;45580;-62
2021/06/20 17:54:31;;;;;;;;;6.50;6.50;;;;;25.62;50.80;100013.31;5077240;27;46136;-57
2021/06/20 17:56:56;;;;;;;;;6.75;6.75;;;;;25.51;50.78;100004.63;5076570;27;58828;-64
2021/06/20 17:59:21;;;;;;;;;8.75;8.75;;;;;25.52;51.19;100011.63;5058808;28;45892;-63
2021/06/20 18:01:47;;;;;;;;;6.00;6.00;;;;;25.46;51.90;99994.44;5077066;27;45314;-63
2021/06/20 18:04:13;;;;;;;;;6.50;6.50;;;;;25.44;52.25;99999.03;5075687;27;45436;-60
2021/06/20 18:06:38;;;;;;;;;8.00;8.00;;;;;25.43;52.27;100008.81;5077021;27;45380;-64
2021/06/20 18:09:05;;;;;;;;;10.50;8.75;;;;;25.39;52.31;100010.03;5076951;27;45678;-62
2021/06/20 18:11:30;;;;;;;;;7.00;7.00;;;;;25.38;52.94;100015.50;5077520;27;45244;-59
2021/06/20 18:13:56;;;;;;;;;9.00;7.75;;;;;25.35;52.70;100018.41;5076619;27;46339;-65
2021/06/20 18:16:21;;;;;;;;;8.00;7.25;;;;;25.32;53.07;100017.69;5076895;27;45227;-49
2021/06/20 18:18:47;;;;;;;;;9.75;8.50;;;;;25.30;53.50;100019.63;5076844;27;45225;-45
2021/06/20 18:21:12;;;;;;;;;7.00;7.00;;;;;25.28;53.40;100012.81;5076904;27;45546;-49
2021/06/20 18:23:38;;;;;;;;;7.00;6.75;;;;;25.29;53.92;100011.84;5057996;28;63968;-53
2021/06/20 18:26:03;;;;;;;;;9.00;9.00;;;;;25.30;53.78;100008.22;5076327;27;66429;-48
2021/06/20 18:28:29;;;;;;;;;7.50;7.50;;;;;25.31;54.27;100016.00;5077155;27;45343;-57
2021/06/20 18:30:55;;;;;;;;;6.00;6.00;;;;;25.32;53.74;100001.78;5075679;27;45459;-53
2021/06/20 18:33:20;;;;;;;;;6.75;6.25;;;;;25.34;53.94;100003.47;5075219;28;47218;-64
2021/06/20 18:35:46;;;;;;;;;10.25;9.00;;;;;25.32;53.92;100006.25;5076517;27;45369;-65
2021/06/20 18:38:11;;;;;;;;;8.75;8.75;;;;;25.30;53.51;99995.78;5075507;27;66110;-66
2021/06/20 18:40:38;;;;;;;;;7.25;7.25;;;;;25.30;54.05;100001.06;5076714;28;45479;-65
2021/06/20 18:43:03;;;;;;;;;6.25;6.25;;;;;25.27;54.13;100001.38;5076625;27;47114;-60
2021/06/20 18:45:29;;;;;;;;;7.50;6.75;;;;;25.25;54.04;99995.34;5076133;27;52008;-62
2021/06/20 18:47:56;;;;;;;;;6.00;6.00;;;;;25.27;54.04;100001.38;5076569;27;45245;-61
2021/06/20 18:50:21;;;;;;;;;6.00;6.00;;;;;25.26;53.53;100004.13;5076604;27;45544;-44
2021/06/20 18:52:47;;;;;;;;;8.00;7.00;;;;;25.25;53.61;99990.06;5075395;27;68207;-49
2021/06/20 18:55:13;;;;;;;;;8.00;6.25;;;;;25.25;53.67;99995.34;5076309;27;45275;-47
2021/06/20 18:57:39;;;;;;;;;8.50;8.50;;;;;25.26;53.71;100007.66;5058301;28;45382;-51
2021/06/20 19:00:07;;;;;;;;;7.50;7.50;;;;;25.25;54.13;100005.97;5075528;28;45411;-50
2021/06/20 19:02:33;;;;;;;;;6.75;6.75;;;;;25.24;53.95;100009.59;5076362;27;45338;-56
2021/06/20 19:04:58;;;;;;;;;8.00;6.75;;;;;25.23;53.54;99996.47;5076274;27;45252;-50
2021/06/20 19:07:23;;;;;;;;;7.50;7.50;;;;;25.22;53.91;100005.41;5075661;27;54595;-59
2021/06/20 19:09:49;;;;;;;;;8.00;8.00;;;;;25.20;53.90;99991.44;5075684;27;53748;-53
2021/06/20 19:12:14;;;;;;;;;7.00;7.00;;;;;25.17;53.70;99980.13;5074232;28;64991;-59
2021/06/20 19:14:40;;;;;;;;;7.00;7.00;;;;;25.18;53.64;99983.63;5074829;27;45537;-58
2021/06/20 19:17:06;;;;;;;;;9.50;7.50;;;;;25.21;53.53;99995.78;5076135;27;45277;-44
2021/06/20 19:19:32;;;;;;;;;8.50;7.50;;;;;25.22;53.48;99990.31;5076415;27;45278;-55
2021/06/20 19:21:57;;;;;;;;;7.25;6.25;;;;;25.24;53.70;100004.28;5075986;27;45229;-59
2021/06/20 19:24:23;;;;;;;;;8.00;8.00;;;;;25.22;53.31;100000.09;5075863;27;45271;-59
2021/06/20 19:26:51;;;;;;;;;7.00;7.00;;;;;25.23;53.75;100007.09;5078897;27;63999;-56
2021/06/20 19:29:16;;;;;;;;;8.25;7.25;;;;;25.23;53.74;99997.31;5079806;27;45291;-59
2021/06/20 19:31:45;;;;;;;;;8.50;7.25;;;;;25.23;53.81;99999.13;5078297;27;71271;-55
2021/06/20 19:34:10;;;;;;;;;8.00;8.00;;;;;25.22;53.57;99989.50;5079345;27;45346;-45
2021/06/20 19:36:35;;;;;;;;;6.00;6.00;;;;;25.22;54.04;99985.03;5079696;27;45308;-58
2021/06/20 19:39:01;;;;;;;;;9.00;8.00;;;;;25.25;53.42;99983.91;5078480;27;58990;-59
2021/06/20 19:41:26;;;;;;;;;9.00;8.25;;;;;25.27;53.83;99971.34;5078392;27;66947;-54
2021/06/20 19:43:57;;;;;;;;;8.75;7.50;;;;;25.28;53.65;99973.88;5078239;27;67869;-57
2021/06/20 19:46:26;;;;;;;;;8.00;8.00;;;;;25.29;53.32;99983.50;5078119;27;45488;-59
2021/06/20 19:48:52;;;;;;;;;8.25;7.00;;;;;25.30;53.71;99987.81;5079323;27;45397;-52
2021/06/20 19:51:17;;;;;;;;;8.00;7.00;;;;;25.31;53.36;99981.53;5079102;27;46483;-47
2021/06/20 19:53:43;;;;;;;;;9.75;7.50;;;;;25.31;53.18;99973.59;5079109;27;45345;-61
2021/06/20 19:56:08;;;;;;;;;8.25;7.75;;;;;25.36;53.69;99985.59;5078328;27;66379;-53
2021/06/20 19:58:33;;;;;;;;;5.75;5.75;;;;;25.34;53.68;99982.25;5079133;27;47404;-60
2021/06/20 20:00:59;;;;;;;;;9.00;9.00;;;;;25.36;53.43;99985.59;5078557;27;51802;-57
2021/06/20 20:03:24;;;;;;;;;8.50;8.25;;;;;25.38;53.03;99984.47;5078817;27;45390;-54
2021/06/20 20:05:50;;;;;;;;;11.25;8.75;;;;;25.39;53.46;99982.69;5079008;27;45283;-56
2021/06/20 20:08:16;;;;;;;;;8.25;8.25;;;;;25.40;53.64;99984.38;5079180;27;45546;-55
2021/06/20 20:10:42;;;;;;;;;10.00;9.00;;;;;25.40;53.08;99981.72;5078783;27;47376;-58
2021/06/20 20:13:09;;;;;;;;;8.25;8.25;;;;;25.41;53.26;99986.06;5078221;27;70024;-56
2021/06/20 20:15:35;;;;;;;;;9.00;9.00;;;;;25.41;53.57;99981.59;5078915;27;45349;-52
2021/06/20 20:18:00;;;;;;;;;8.75;8.75;;;;;25.42;53.30;99971.81;5077590;28;45256;-55
2021/06/20 20:20:26;;;;;;;;;11.00;10.00;;;;;25.42;52.87;99972.66;5078554;27;46273;-60
2021/06/20 20:22:53;;;;;;;;;8.00;8.00;;;;;25.44;52.93;99983.13;5078445;27;45363;-57
2021/06/20 20:25:18;;;;;;;;;7.75;7.75;;;;;25.44;52.85;99980.47;5078701;27;45574;-59
2021/06/20 20:27:44;;;;;;;;;8.25;8.00;;;;;25.43;52.72;99992.91;5078725;27;45324;-60
2021/06/20 20:30:11;;;;;;;;;7.25;7.25;;;;;25.43;53.15;99984.94;5076902;28;55357;-60
2021/06/20 20:32:38;;;;;;;;;12.00;9.75;;;;;25.43;52.67;99981.44;5078593;27;45714;-59
2021/06/20 20:35:04;;;;;;;;;8.75;8.75;;;;;25.44;52.73;99972.50;5077182;28;45328;-60
2021/06/20 20:37:29;;;;;;;;;8.00;8.00;;;;;25.43;53.12;99984.09;5078394;27;45284;-59
2021/06/20 20:39:54;;;;;;;;;8.25;8.25;;;;;25.43;53.25;99974.34;5077147;27;66310;-59
2021/06/20 20:42:20;;;;;;;;;9.25;6.75;;;;;25.44;52.60;99981.31;5077519;27;66840;-60
2021/06/20 20:44:45;;;;;;;;;8.25;8.25;;;;;25.44;53.09;99983.13;5077756;27;54722;-58
2021/06/20 20:47:10;;;;;;;;;6.50;6.50;;;;;25.44;53.17;99983.97;5078319;27;45334;-53
2021/06/20 20:49:36;;;;;;;;;7.00;7.00;;;;;25.45;52.76;99990.09;5077683;27;62334;-60
2021/06/20 20:52:02;;;;;;;;;9.75;8.75;;;;;25.45;52.77;99990.97;5077310;27;67198;-60
2021/06/20 20:54:27;;;;;;;;;7.25;7.25;;;;;25.40;52.94;99990.53;5077001;27;45261;-58
2021/06/20 20:56:53;;;;;;;;;8.50;7.75;;;;;25.45;52.80;99996.28;5077569;27;58408;-60
2021/06/20 20:59:18;;;;;;;;;8.50;8.00;;;;;25.45;52.77;99995.41;5077920;27;46271;-57
2021/06/20 21:01:44;;;;;;;;;6.50;6.50;;;;;25.44;52.71;100007.00;5076588;28;48200;-60
2021/06/20 21:04:10;;;;;;;;;9.00;9.00;;;;;25.44;53.22;100005.19;5078608;27;45412;-59
2021/06/20 21:06:35;;;;;;;;;8.00;8.00;;;;;25.44;52.95;100004.34;5078264;27;45349;-59
2021/06/20 21:09:01;;;;;;;;;8.25;8.25;;;;;25.45;53.35;100006.03;5077746;27;48679;-58
2021/06/20 21:11:26;;;;;;;;;7.75;7.75;;;;;25.44;52.98;100004.34;5077976;27;45402;-60
2021/06/20 21:13:52;;;;;;;;;9.25;8.25;;;;;25.44;53.04;100004.34;5077229;27;60854;-50
2021/06/20 21:16:17;;;;;;;;;8.00;7.25;;;;;25.44;52.87;100004.34;5077198;27;53490;-58
2021/06/20 21:18:43;;;;;;;;;6.50;6.50;;;;;25.45;52.90;100003.38;5077194;27;57223;-58
2021/06/20 21:21:09;;;;;;;;;7.75;6.25;;;;;25.43;53.05;100000.88;5077854;27;45351;-59
2021/06/20 21:23:34;;;;;;;;;10.00;8.00;;;;;25.43;53.17;100000.88;5077166;27;59928;-56
2021/06/20 21:25:59;;;;;;;;;6.50;6.50;;;;;25.43;52.77;100008.81;5076357;28;45321;-57
2021/06/20 21:28:25;;;;;;;;;10.00;7.75;;;;;25.44;52.79;100005.19;5077248;27;53892;-59
2021/06/20 21:30:50;;;;;;;;;6.25;6.25;;;;;25.44;53.13;100009.66;5076769;27;64557;-58
2021/06/20 21:33:19;;;;;;;;;7.50;7.50;;;;;25.42;52.94;100006.28;5077001;27;60274;-57
2021/06/20 21:35:48;;;;;;;;;8.00;6.50;;;;;25.41;52.87;100010.78;5076484;28;45455;-53
2021/06/20 21:38:13;;;;;;;;;6.50;6.00;;;;;25.39;52.98;100022.47;5077009;27;46438;-51
2021/06/20 21:40:39;;;;;;;;;6.25;6.00;;;;;25.39;53.21;100017.16;5077737;27;45340;-52
2021/06/20 21:43:04;;;;;;;;;5.50;5.50;;;;;25.38;53.16;100018.13;5075428;27;60176;-54
2021/06/20 21:45:29;;;;;;;;;7.00;6.00;;;;;25.38;53.22;100016.31;5077365;27;45287;-55
2021/06/20 21:47:55;;;;;;;;;9.00;6.00;;;;;25.38;52.77;100015.50;5076350;27;56912;-52
2021/06/20 21:50:21;;;;;;;;;6.50;5.00;;;;;25.35;53.31;100015.75;5077168;27;45185;-51
2021/06/20 21:52:47;;;;;;;;;8.50;5.75;;;;;25.37;53.20;100021.75;5077308;27;45286;-48
2021/06/20 21:55:14;;;;;;;;;5.00;5.00;;;;;25.36;53.18;100025.38;5077774;27;45580;-49
2021/06/20 21:57:39;;;;;;;;;6.00;6.00;;;;;25.35;52.67;100029.00;5077212;28;46832;-50
2021/06/20 22:00:26;;;;;;;;;6.25;6.25;;;;;25.32;52.74;100028.31;5076258;27;63896;-45
2021/06/20 22:02:52;;;;;;;;;7.00;7.00;;;;;25.32;53.23;100023.00;5059015;28;45469;-52
2021/06/20 22:05:17;;;;;;;;;6.25;6.25;;;;;25.32;53.20;100032.78;5077299;27;45452;-53
2021/06/20 22:07:43;;;;;;;;;7.25;5.25;;;;;25.29;52.81;100036.56;5077089;27;45965;-53
2021/06/20 22:10:09;;;;;;;;;7.25;7.25;;;;;25.28;52.80;100037.53;5075652;28;45427;-57
2021/06/20 22:12:34;;;;;;;;;8.00;6.00;;;;;25.29;52.95;100036.56;5076986;27;45245;-56
2021/06/20 22:14:59;;;;;;;;;5.75;5.75;;;;;25.27;52.78;100030.53;5077113;27;45611;-57
2021/06/20 22:17:25;;;;;;;;;5.00;4.50;;;;;25.26;52.71;100036.81;5075888;27;69119;-47
2021/06/20 22:19:50;;;;;;;;;6.50;5.25;;;;;25.26;52.65;100031.53;5076070;27;60043;-55
2021/06/20 22:22:16;;;;;;;;;6.00;5.00;;;;;25.25;52.69;100021.88;5076199;27;61308;-56
2021/06/20 22:24:41;;;;;;;;;5.75;4.00;;;;;25.24;53.22;100020.19;5075915;28;45266;-47
2021/06/20 22:27:07;;;;;;;;;6.00;6.00;;;;;25.25;52.83;100021.88;5076656;27;45261;-51
2021/06/20 22:29:33;;;;;;;;;6.00;6.00;;;;;25.24;52.75;100019.38;5076718;27;45685;-52
2021/06/20 22:31:58;;;;;;;;;4.25;4.25;;;;;25.25;53.16;100013.94;5076762;27;45309;-53
2021/06/20 22:34:27;;;;;;;;;5.25;4.25;;;;;25.24;52.81;100019.38;5076732;27;45311;-53
2021/06/20 22:36:52;;;;;;;;;5.00;5.00;;;;;25.25;52.72;100010.41;5076493;28;45564;-59
2021/06/20 22:39:18;;;;;;;;;8.50;7.25;;;;;25.24;53.37;100014.91;5075238;27;71763;-56
2021/06/20 22:41:43;;;;;;;;;7.00;7.00;;;;;25.24;52.91;100020.19;5076448;27;53676;-51
2021/06/20 22:44:09;;;;;;;;;5.00;5.00;;;;;25.25;53.20;100016.56;5076138;27;49147;-48
2021/06/20 22:46:35;;;;;;;;;5.25;5.25;;;;;25.25;53.22;100013.06;5076324;28;46068;-48
2021/06/20 22:49:00;;;;;;;;;7.50;7.50;;;;;25.25;53.24;100011.28;5075136;28;45197;-53
2021/06/20 22:51:26;;;;;;;;;5.00;5.00;;;;;25.25;53.20;100011.28;5076479;27;45810;-53
2021/06/20 22:53:51;;;;;;;;;7.00;5.75;;;;;25.26;52.76;100020.06;5075860;27;55022;-55
2021/06/20 22:56:16;;;;;;;;;4.50;4.50;;;;;25.26;52.69;100020.91;5076379;27;47042;-48
2021/06/20 22:58:43;;;;;;;;;5.75;5.75;;;;;25.26;52.65;100017.41;5075439;27;45418;-58
2021/06/20 23:01:08;;;;;;;;;5.50;5.50;;;;;25.25;53.03;100016.56;5079025;27;45266;-56
2021/06/20 23:03:33;;;;;;;;;6.25;6.25;;;;;25.27;52.94;100025.25;5080155;27;45476;-59
2021/06/20 23:05:59;;;;;;;;;6.25;6.25;;;;;25.26;52.85;100031.53;5079559;27;45431;-51
2021/06/20 23:08:24;;;;;;;;;5.50;5.50;;;;;25.26;52.60;100022.72;5078994;27;63677;-55
2021/06/20 23:10:50;;;;;;;;;6.50;6.50;;;;;25.24;53.02;100030.81;5079229;27;63357;-49
2021/06/20 23:13:15;;;;;;;;;5.50;5.50;;;;;25.23;52.87;100026.47;5080281;27;45393;-61
2021/06/20 23:15:40;;;;;;;;;4.50;4.50;;;;;25.19;53.02;100025.06;5077742;28;65928;-57
2021/06/20 23:18:06;;;;;;;;;4.00;4.00;;;;;25.19;52.89;100026.88;5077744;28;66137;-57
2021/06/20 23:20:31;;;;;;;;;4.50;4.50;;;;;25.21;52.94;100024.94;5079635;27;45414;-50
2021/06/20 23:22:57;;;;;;;;;6.00;5.00;;;;;25.20;53.15;100018.78;5078419;28;45316;-45
2021/06/20 23:25:22;;;;;;;;;6.00;5.25;;;;;25.19;52.50;100022.41;5079523;27;46081;-50
2021/06/20 23:27:55;;;;;;;;;5.50;4.25;;;;;25.16;52.47;100012.09;5079374;27;50691;-52
2021/06/20 23:30:22;;;;;;;;;5.00;4.00;;;;;25.12;53.12;100015.97;5079693;27;45292;-45
2021/06/20 23:32:48;;;;;;;;;6.25;4.75;;;;;25.08;52.70;100014.59;5079845;27;45317;-54
2021/06/20 23:35:13;;;;;;;;;5.00;5.00;;;;;25.01;52.78;100012.47;5078293;28;46834;-45
2021/06/20 23:37:39;;;;;;;;;7.00;5.50;;;;;24.93;53.45;100017.59;5079187;27;45556;-45
2021/06/20 23:40:05;;;;;;;;;7.00;5.75;;;;;24.91;53.29;100029.31;5079353;27;45525;-53
2021/06/20 23:42:31;;;;;;;;;6.25;5.75;;;;;24.89;53.12;100025.94;5079612;27;45211;-51
2021/06/20 23:44:56;;;;;;;;;5.75;5.75;;;;;24.86;53.16;100032.34;5079130;27;45483;-50
2021/06/20 23:47:22;;;;;;;;;4.50;4.50;;;;;24.86;53.10;100021.75;5077623;27;45354;-49
2021/06/20 23:49:47;;;;;;;;;6.00;4.00;;;;;24.89;53.59;100036.56;5078534;27;68062;-59
2021/06/20 23:52:12;;;;;;;;;6.00;5.00;;;;;24.89;53.72;100037.38;5078555;27;53854;-58
2021/06/20 23:54:38;;;;;;;;;4.75;4.75;;;;;24.91;53.51;100032.78;5078995;27;46911;-58
2021/06/20 23:57:03;;;;;;;;;2.75;2.75;;;;;24.93;53.65;100033.50;5076933;28;67110;-59
2021/06/20 23:59:29;;;;;;;;;4.50;4.00;;;;;24.94;53.62;100029.88;5078993;27;45531;-59
